Time;durP1;ratioP1;P1;durP2;ratioP2;P2;SDS_P1;SDS_P2;PMS_P1;PMS_P2;Temp;Humidity;BMP_temperature;BMP_pressure;BME280_temperature;BME280_humidity;BME280_pressure;Samples;Min_cycle;Max_cycle;Signal;HPM_P1;HPM_P2
2022/01/21 00:00:23;;;;;;;4.35;1.23;;;-2.90;99.90;;;;;;5007427;28;20037;-53
2022/01/21 00:02:49;;;;;;;0.93;0.65;;;-2.90;99.90;;;;;;5008892;28;20026;-53
2022/01/21 00:05:15;;;;;;;4.85;1.13;;;-2.90;99.90;;;;;;5007899;28;20484;-54
2022/01/21 00:07:41;;;;;;;6.13;1.10;;;-2.80;99.90;;;;;;5008309;28;20411;-56
2022/01/21 00:10:08;;;;;;;3.60;1.20;;;-2.70;99.90;;;;;;5007641;28;20026;-55
2022/01/21 00:12:35;;;;;;;2.20;0.85;;;-2.60;99.90;;;;;;5008051;28;20026;-53
2022/01/21 00:15:02;;;;;;;4.15;1.05;;;-2.50;99.90;;;;;;5008220;28;20026;-56
2022/01/21 00:17:28;;;;;;;2.83;1.05;;;-2.50;99.90;;;;;;5008584;28;20038;-53
2022/01/21 00:30:06;;;;;;;6.63;0.93;;;-2.40;99.90;;;;;;5011227;28;20077;-55
2022/01/21 00:30:52;;;;;;;4.07;1.15;;;-2.10;99.90;;;;;;5011728;28;20053;-55
2022/01/21 00:33:17;;;;;;;3.55;1.20;;;-2.00;99.90;;;;;;4994266;28;20017;-57
2022/01/21 00:35:43;;;;;;;5.78;1.30;;;-2.00;99.90;;;;;;4992273;28;20113;-57
2022/01/21 00:38:09;;;;;;;6.43;1.13;;;-2.00;99.90;;;;;;5011523;28;20417;-53
2022/01/21 00:40:35;;;;;;;3.33;0.85;;;-1.90;99.90;;;;;;5010742;28;20026;-54
2022/01/21 00:43:19;;;;;;;4.07;0.98;;;-1.90;99.90;;;;;;5010941;28;20026;-55
2022/01/21 00:45:46;;;;;;;2.75;0.85;;;-1.90;99.90;;;;;;5010462;28;20419;-55
2022/01/21 00:48:11;;;;;;;5.13;1.05;;;-1.80;99.90;;;;;;5010791;28;20113;-53
2022/01/21 00:50:37;;;;;;;3.17;0.95;;;-1.70;99.90;;;;;;5011463;28;20041;-57
2022/01/21 00:53:03;;;;;;;2.63;1.20;;;-1.70;99.90;;;;;;5011591;28;20029;-55
2022/01/21 00:55:29;;;;;;;1.77;0.73;;;-1.70;99.90;;;;;;5009539;28;20045;-56
2022/01/21 00:57:54;;;;;;;3.40;0.90;;;-1.60;99.90;;;;;;5011349;28;20038;-54
2022/01/21 01:00:20;;;;;;;6.30;0.93;;;-1.60;99.90;;;;;;5009850;28;20080;-54
2022/01/21 01:02:45;;;;;;;4.45;1.10;;;-1.70;99.90;;;;;;5010174;28;20048;-53
2022/01/21 01:05:12;;;;;;;4.63;1.30;;;-1.70;99.90;;;;;;5010178;28;20029;-54
2022/01/21 01:07:38;;;;;;;5.10;1.17;;;-1.80;99.90;;;;;;5010172;28;20030;-52
2022/01/21 01:10:08;;;;;;;3.15;1.05;;;-1.80;99.90;;;;;;5010146;28;20479;-56
2022/01/21 01:20:43;;;;;;;3.70;0.80;;;-2.00;99.90;;;;;;5009504;28;20036;-57
2022/01/21 01:23:23;;;;;;;1.33;0.77;;;-1.90;99.90;;;;;;5010215;28;20026;-56
2022/01/21 01:28:33;;;;;;;3.63;0.80;;;-2.00;99.90;;;;;;5008631;28;20041;-56
2022/01/21 01:30:58;;;;;;;7.85;1.20;;;-2.00;99.90;;;;;;5009074;28;20041;-55
2022/01/21 01:33:33;;;;;;;7.80;0.88;;;-2.10;99.90;;;;;;5009694;28;20022;-53
2022/01/21 01:35:59;;;;;;;3.67;1.10;;;-2.10;99.90;;;;;;5006409;28;20104;-56
2022/01/21 01:38:57;;;;;;;6.40;1.15;;;-2.20;99.90;;;;;;5010352;28;20476;-57
2022/01/21 01:41:13;;;;;;;6.93;1.00;;;-2.20;99.90;;;;;;5008269;28;20451;-52
2022/01/21 01:51:42;;;;;;;3.33;1.38;;;-2.40;99.90;;;;;;5010124;28;20024;-54
2022/01/21 01:54:13;;;;;;;5.85;1.10;;;-2.50;99.90;;;;;;5009417;28;20022;-54
2022/01/21 01:56:46;;;;;;;4.85;1.27;;;-2.60;99.90;;;;;;5008758;28;20050;-54
2022/01/21 01:59:12;;;;;;;7.15;1.33;;;-2.60;99.90;;;;;;5005816;28;20496;-55
2022/01/21 02:01:37;;;;;;;5.97;1.15;;;-2.60;99.90;;;;;;5007356;28;20041;-56
2022/01/21 02:04:03;;;;;;;3.65;1.23;;;-2.70;99.90;;;;;;5007550;28;20036;-53
2022/01/21 02:06:29;;;;;;;4.95;1.35;;;-2.70;99.90;;;;;;5010066;28;20021;-56
2022/01/21 02:08:55;;;;;;;5.85;1.73;;;-2.70;99.90;;;;;;5008474;28;20083;-56
2022/01/21 02:11:20;;;;;;;2.67;1.05;;;-2.80;99.90;;;;;;5009590;28;20193;-53
2022/01/21 02:13:50;;;;;;;2.80;0.98;;;-2.80;99.90;;;;;;5008482;28;20026;-56
2022/01/21 02:21:40;;;;;;;5.82;1.60;;;-2.80;99.90;;;;;;5009973;28;20491;-54
2022/01/21 02:24:13;;;;;;;5.50;1.83;;;-2.80;99.90;;;;;;4991870;28;20030;-53
2022/01/21 02:26:39;;;;;;;5.40;1.05;;;-2.90;99.90;;;;;;5009823;28;20120;-53
2022/01/21 02:29:07;;;;;;;3.30;1.33;;;-2.90;99.90;;;;;;5008507;28;20109;-57
2022/01/21 02:31:34;;;;;;;6.60;1.98;;;-2.80;99.90;;;;;;5009319;28;20109;-54
2022/01/21 02:34:00;;;;;;;6.00;1.48;;;-2.80;99.90;;;;;;5007972;28;20504;-56
2022/01/21 02:36:27;;;;;;;8.65;1.48;;;-2.80;99.90;;;;;;4991644;28;20025;-53
2022/01/21 02:38:54;;;;;;;9.43;1.58;;;-2.80;99.90;;;;;;5009480;28;20018;-57
2022/01/21 02:41:19;;;;;;;7.32;1.38;;;-2.80;99.90;;;;;;4990659;28;20546;-54
2022/01/21 02:43:45;;;;;;;6.50;1.85;;;-2.70;99.90;;;;;;5007844;28;20041;-53
2022/01/21 02:46:11;;;;;;;4.85;1.50;;;-2.70;99.90;;;;;;5009012;28;20279;-55
2022/01/21 02:48:38;;;;;;;7.93;2.03;;;-2.70;99.90;;;;;;5008286;28;20385;-54
2022/01/21 02:51:09;;;;;;;3.83;1.48;;;-2.80;99.90;;;;;;4990738;28;20029;-56
2022/01/21 02:54:04;;;;;;;5.20;1.60;;;-2.80;99.90;;;;;;5008695;28;20395;-55
2022/01/21 02:56:22;;;;;;;3.33;1.45;;;-2.80;99.90;;;;;;5006697;28;20519;-57
2022/01/21 02:58:48;;;;;;;6.38;1.70;;;-2.80;99.90;;;;;;5008746;28;20181;-55
2022/01/21 03:01:16;;;;;;;7.63;2.35;;;-2.80;99.90;;;;;;5008748;28;20032;-56
2022/01/21 03:03:43;;;;;;;3.40;1.60;;;-2.80;99.90;;;;;;5008813;28;20041;-56
2022/01/21 03:06:09;;;;;;;7.80;1.83;;;-2.80;99.90;;;;;;5007077;28;20025;-56
2022/01/21 03:08:35;;;;;;;10.30;1.77;;;-2.90;99.90;;;;;;5009231;28;20076;-54
2022/01/21 03:11:00;;;;;;;3.90;1.80;;;-2.90;99.90;;;;;;5008874;28;20026;-55
2022/01/21 03:13:26;;;;;;;7.13;1.50;;;-2.90;99.90;;;;;;5007221;28;20033;-56
2022/01/21 03:15:53;;;;;;;9.30;1.85;;;-2.90;99.90;;;;;;5008001;28;20037;-54
2022/01/21 03:18:19;;;;;;;6.90;2.35;;;-2.80;99.90;;;;;;4990085;28;20084;-56
2022/01/21 03:20:45;;;;;;;8.90;1.80;;;-2.80;99.90;;;;;;5007184;28;20510;-56
2022/01/21 03:23:16;;;;;;;9.18;1.63;;;-2.90;99.90;;;;;;5008298;28;20492;-53
2022/01/21 03:25:44;;;;;;;6.63;1.80;;;-2.80;99.90;;;;;;4990063;28;20041;-56
2022/01/21 03:28:13;;;;;;;5.05;1.65;;;-2.90;99.90;;;;;;4991204;28;20065;-57
2022/01/21 03:30:40;;;;;;;5.80;1.83;;;-2.90;99.90;;;;;;5006308;28;20105;-56
2022/01/21 03:33:06;;;;;;;5.60;1.23;;;-2.90;99.90;;;;;;5007771;28;20408;-55
2022/01/21 03:35:32;;;;;;;11.88;1.60;;;-2.90;99.90;;;;;;5008526;28;20042;-55
2022/01/21 03:37:58;;;;;;;6.47;1.42;;;-2.90;99.90;;;;;;5007658;28;20032;-53
2022/01/21 03:40:24;;;;;;;7.10;1.73;;;-2.90;99.90;;;;;;5008892;28;20017;-57
2022/01/21 03:42:49;;;;;;;3.05;1.52;;;-2.90;99.90;;;;;;5008682;28;20084;-58
2022/01/21 03:45:15;;;;;;;5.57;1.30;;;-2.90;99.90;;;;;;5008355;28;20052;-58
2022/01/21 03:47:42;;;;;;;7.95;1.45;;;-2.90;99.90;;;;;;5008258;28;20034;-55
2022/01/21 03:50:29;;;;;;;9.20;1.73;;;-2.80;99.90;;;;;;5007765;28;20060;-53
2022/01/21 03:52:55;;;;;;;8.18;1.67;;;-2.80;99.90;;;;;;5008856;28;20022;-55
2022/01/21 03:55:21;;;;;;;6.05;2.05;;;-2.70;99.90;;;;;;5012525;28;20026;-57
2022/01/21 03:57:46;;;;;;;4.72;1.38;;;-2.60;99.90;;;;;;4994686;28;20596;-57
2022/01/21 04:00:19;;;;;;;6.30;1.33;;;-2.60;99.90;;;;;;5011873;28;20044;-53
2022/01/21 04:02:45;;;;;;;9.52;1.88;;;-2.40;99.90;;;;;;5011061;28;20049;-54
2022/01/21 04:05:11;;;;;;;7.28;2.17;;;-2.40;99.90;;;;;;5011973;28;20037;-53
2022/01/21 04:07:36;;;;;;;10.57;1.83;;;-2.30;99.90;;;;;;5011425;28;20526;-53
2022/01/21 04:10:04;;;;;;;7.13;2.00;;;-2.20;99.90;;;;;;5010808;28;20488;-57
2022/01/21 04:12:29;;;;;;;6.75;1.50;;;-2.20;99.90;;;;;;5011353;28;20034;-53
2022/01/21 04:14:58;;;;;;;8.10;1.80;;;-2.10;99.90;;;;;;5011943;28;20518;-53
2022/01/21 04:17:23;;;;;;;6.55;1.85;;;-2.10;99.90;;;;;;5011630;28;20084;-57
2022/01/21 04:19:49;;;;;;;12.45;2.10;;;-2.10;99.90;;;;;;5010231;28;20041;-54
2022/01/21 04:22:15;;;;;;;10.95;2.13;;;-2.00;99.90;;;;;;5011796;28;20022;-53
2022/01/21 04:24:44;;;;;;;10.23;2.33;;;-1.90;99.90;;;;;;5010975;28;20041;-55
2022/01/21 04:27:09;;;;;;;2.05;1.30;;;-1.90;99.90;;;;;;5011190;28;20056;-53
2022/01/21 04:29:35;;;;;;;13.90;2.42;;;-1.90;99.90;;;;;;4993336;28;20062;-53
2022/01/21 04:32:00;;;;;;;10.57;2.08;;;-1.80;99.90;;;;;;5010414;28;20057;-54
2022/01/21 04:34:26;;;;;;;6.50;1.42;;;-1.90;99.90;;;;;;5010071;28;20030;-56
2022/01/21 04:36:51;;;;;;;5.78;1.48;;;-1.90;99.90;;;;;;5010379;28;20082;-56
2022/01/21 04:39:24;;;;;;;5.28;1.83;;;-1.90;99.90;;;;;;5011747;28;20018;-55
2022/01/21 04:47:17;;;;;;;9.75;2.38;;;-1.90;99.90;;;;;;5010731;28;20104;-51
2022/01/21 04:49:43;;;;;;;10.00;2.20;;;-1.80;99.90;;;;;;5010964;28;20064;-56
2022/01/21 04:52:09;;;;;;;10.32;1.88;;;-1.80;99.90;;;;;;5010308;28;20025;-52
2022/01/21 04:54:36;;;;;;;5.70;1.77;;;-1.70;99.90;;;;;;5011238;28;20053;-57
2022/01/21 04:57:03;;;;;;;6.75;1.63;;;-1.50;99.90;;;;;;5010540;28;20065;-55
2022/01/21 04:59:30;;;;;;;9.15;2.17;;;-1.60;99.90;;;;;;5009699;28;20034;-55
2022/01/21 05:01:56;;;;;;;11.82;2.67;;;-1.40;99.90;;;;;;5009985;28;20443;-53
2022/01/21 05:04:22;;;;;;;12.65;2.28;;;-1.30;99.90;;;;;;5011042;28;20022;-52
2022/01/21 05:06:49;;;;;;;12.18;1.90;;;-1.30;99.90;;;;;;5011061;28;20026;-53
2022/01/21 05:09:16;;;;;;;7.15;2.67;;;-1.20;99.90;;;;;;5009527;28;20026;-56
2022/01/21 05:11:44;;;;;;;14.88;2.10;;;-1.10;99.90;;;;;;5009263;28;20021;-56
2022/01/21 05:14:22;;;;;;;8.73;2.25;;;-1.00;99.90;;;;;;5010940;28;20496;-52
2022/01/21 05:16:50;;;;;;;6.63;2.17;;;-1.00;99.90;;;;;;5008612;28;20494;-56
2022/01/21 05:19:18;;;;;;;11.27;1.95;;;-1.00;99.90;;;;;;5010972;28;20486;-57
2022/01/21 05:21:49;;;;;;;6.47;1.95;;;-1.00;99.90;;;;;;5010689;28;20022;-56
2022/01/21 05:24:16;;;;;;;8.23;1.63;;;-0.90;99.90;;;;;;5009292;28;20436;-55
2022/01/21 05:26:52;;;;;;;11.15;1.90;;;-0.80;99.90;;;;;;5009746;28;20038;-53
2022/01/21 05:29:19;;;;;;;7.90;2.00;;;-0.80;99.90;;;;;;5011056;28;20021;-56
2022/01/21 05:31:44;;;;;;;11.45;2.28;;;-0.80;99.90;;;;;;5009645;28;20034;-55
2022/01/21 05:34:10;;;;;;;6.05;1.25;;;-0.80;99.90;;;;;;5010023;28;20030;-52
2022/01/21 05:36:40;;;;;;;8.52;1.77;;;-0.80;99.90;;;;;;5009126;28;20030;-52
2022/01/21 05:39:06;;;;;;;9.23;2.80;;;-0.80;99.90;;;;;;5010140;28;20041;-55
2022/01/21 05:41:32;;;;;;;6.32;1.33;;;-0.70;99.90;;;;;;5010306;28;20036;-55
2022/01/21 05:44:05;;;;;;;13.35;2.22;;;-0.70;99.90;;;;;;4992509;28;20022;-54
2022/01/21 05:49:14;;;;;;;7.03;1.92;;;-0.60;99.90;;;;;;5009469;28;20076;-53
2022/01/21 05:51:40;;;;;;;7.00;2.00;;;-0.60;99.90;;;;;;5009869;28;20026;-56
2022/01/21 05:54:08;;;;;;;8.32;1.70;;;-0.60;99.90;;;;;;5010174;28;20029;-51
2022/01/21 05:56:34;;;;;;;5.93;1.70;;;-0.60;99.90;;;;;;5009378;28;20058;-56
2022/01/21 05:59:00;;;;;;;7.13;1.95;;;-0.60;99.90;;;;;;5008801;28;20123;-55
2022/01/21 06:01:29;;;;;;;10.93;1.95;;;-0.60;99.90;;;;;;5009572;28;20076;-55
2022/01/21 06:03:54;;;;;;;8.73;1.63;;;-0.60;99.90;;;;;;5009528;28;20041;-52
2022/01/21 06:06:20;;;;;;;6.35;1.98;;;-0.60;99.90;;;;;;5007839;28;20029;-55
2022/01/21 06:08:45;;;;;;;5.55;1.33;;;-0.60;99.90;;;;;;5009522;28;20029;-55
2022/01/21 06:11:11;;;;;;;9.52;2.05;;;-0.60;99.90;;;;;;5009116;28;20041;-57
2022/01/21 06:13:37;;;;;;;6.00;1.55;;;-0.50;99.90;;;;;;5008591;28;20400;-56
2022/01/21 06:16:03;;;;;;;13.57;2.40;;;-0.50;99.90;;;;;;5006196;28;20037;-55
2022/01/21 06:18:29;;;;;;;6.50;1.35;;;-0.50;99.90;;;;;;5009144;28;20457;-54
2022/01/21 06:20:55;;;;;;;10.45;1.77;;;-0.50;99.90;;;;;;5008589;28;20073;-55
2022/01/21 06:23:20;;;;;;;9.50;2.63;;;-0.50;99.90;;;;;;5008459;28;20067;-56
2022/01/21 06:25:46;;;;;;;5.82;1.80;;;-0.50;99.90;;;;;;4991496;28;20057;-57
2022/01/21 06:28:11;;;;;;;9.98;2.33;;;-0.50;99.90;;;;;;5009507;28;20483;-52
2022/01/21 06:30:37;;;;;;;8.45;1.73;;;-0.50;99.90;;;;;;5009097;28;20070;-53
2022/01/21 06:33:03;;;;;;;8.82;1.98;;;-0.60;99.90;;;;;;5007993;28;20610;-55
2022/01/21 06:35:29;;;;;;;2.58;1.35;;;-0.60;99.90;;;;;;5007661;28;20061;-54
2022/01/21 06:37:55;;;;;;;7.75;1.77;;;-0.60;99.90;;;;;;5009610;28;20061;-54
2022/01/21 06:40:20;;;;;;;8.02;1.77;;;-0.60;99.90;;;;;;5008685;28;20038;-56
2022/01/21 06:42:48;;;;;;;4.93;1.40;;;-0.70;99.90;;;;;;5008867;28;20550;-54
2022/01/21 06:45:13;;;;;;;9.75;2.28;;;-0.70;99.90;;;;;;5008918;28;20049;-55
2022/01/21 06:47:39;;;;;;;9.35;2.05;;;-0.70;99.90;;;;;;5008889;28;20033;-58
2022/01/21 06:50:05;;;;;;;7.10;2.15;;;-0.80;99.90;;;;;;5008364;28;20112;-55
2022/01/21 06:52:31;;;;;;;10.75;1.73;;;-0.80;99.90;;;;;;5008981;28;20033;-56
2022/01/21 06:54:58;;;;;;;7.88;2.15;;;-0.90;99.90;;;;;;5008495;28;20377;-54
2022/01/21 06:57:24;;;;;;;2.47;1.55;;;-0.90;99.90;;;;;;5008762;28;20496;-52
2022/01/21 06:59:50;;;;;;;4.07;1.30;;;-0.90;99.90;;;;;;5009386;28;20084;-55
2022/01/21 07:02:18;;;;;;;6.25;2.03;;;-0.90;99.90;;;;;;4989985;28;20025;-55
2022/01/21 07:04:44;;;;;;;5.72;1.42;;;-0.90;99.90;;;;;;5008864;28;20022;-54
2022/01/21 07:07:10;;;;;;;5.32;1.63;;;-0.90;99.90;;;;;;5008285;28;20110;-57
2022/01/21 07:09:36;;;;;;;14.77;2.10;;;-0.90;99.90;;;;;;5009209;28;20157;-52
2022/01/21 07:12:02;;;;;;;5.40;1.63;;;-0.90;99.90;;;;;;5007333;28;20041;-54
2022/01/21 07:14:27;;;;;;;4.30;1.30;;;-0.80;99.90;;;;;;5007236;28;20029;-57
2022/01/21 07:16:53;;;;;;;4.45;1.80;;;-0.80;99.90;;;;;;5007311;28;20029;-56
2022/01/21 07:19:18;;;;;;;4.93;1.60;;;-0.80;99.90;;;;;;5007037;28;20061;-53
2022/01/21 07:21:44;;;;;;;9.00;1.98;;;-0.80;99.90;;;;;;5007550;28;20034;-57
2022/01/21 07:24:10;;;;;;;5.95;1.50;;;-0.90;99.90;;;;;;5007922;28;20105;-57
2022/01/21 07:26:35;;;;;;;3.78;1.50;;;-0.90;99.90;;;;;;5005409;28;20403;-51
2022/01/21 07:29:01;;;;;;;3.50;1.20;;;-1.00;99.90;;;;;;5006933;28;20025;-52
2022/01/21 07:31:27;;;;;;;3.38;1.30;;;-1.00;99.90;;;;;;5008450;28;20481;-55
2022/01/21 07:33:53;;;;;;;3.92;1.45;;;-0.90;99.90;;;;;;5007507;28;20049;-53
2022/01/21 07:36:18;;;;;;;5.00;1.02;;;-0.90;99.90;;;;;;5008530;28;20056;-53
2022/01/21 07:38:44;;;;;;;5.90;1.55;;;-1.00;99.90;;;;;;5008331;28;20048;-53
2022/01/21 07:41:09;;;;;;;10.30;1.85;;;-1.00;99.90;;;;;;5008731;28;20103;-53
2022/01/21 07:43:35;;;;;;;3.85;1.40;;;-1.00;99.90;;;;;;5008154;28;20441;-53
2022/01/21 07:46:00;;;;;;;3.90;1.15;;;-0.90;99.90;;;;;;5008640;28;20044;-55
2022/01/21 07:48:26;;;;;;;4.47;1.08;;;-1.00;99.90;;;;;;5008462;28;20447;-53
2022/01/21 07:50:52;;;;;;;1.88;0.85;;;-1.00;99.90;;;;;;5008116;28;20403;-53
2022/01/21 07:53:17;;;;;;;6.13;1.27;;;-1.00;99.90;;;;;;5007379;28;20069;-57
2022/01/21 07:55:44;;;;;;;2.40;0.70;;;-1.00;99.90;;;;;;5008564;28;20113;-55
2022/01/21 07:58:11;;;;;;;4.18;0.98;;;-1.10;99.90;;;;;;5007351;28;20038;-54
2022/01/21 08:00:37;;;;;;;3.17;1.05;;;-1.10;99.90;;;;;;5008008;28;20030;-55
2022/01/21 08:03:04;;;;;;;9.85;1.40;;;-1.10;99.90;;;;;;4989577;28;20107;-56
2022/01/21 08:05:32;;;;;;;4.68;1.33;;;-1.00;99.90;;;;;;5007676;28;20029;-51
2022/01/21 08:07:58;;;;;;;3.30;1.65;;;-1.00;99.90;;;;;;5008387;28;20060;-53
2022/01/21 08:10:23;;;;;;;7.53;1.80;;;-1.00;99.90;;;;;;5006299;28;20057;-56
2022/01/21 08:12:49;;;;;;;6.00;1.48;;;-1.00;99.90;;;;;;5006822;28;20030;-52
2022/01/21 08:15:14;;;;;;;5.93;1.67;;;-0.90;99.90;;;;;;5008114;28;20026;-54
2022/01/21 08:17:40;;;;;;;4.55;0.95;;;-0.80;99.90;;;;;;5008129;28;20034;-55
2022/01/21 08:20:06;;;;;;;5.20;1.25;;;-0.80;99.90;;;;;;5008126;28;20176;-55
2022/01/21 08:22:32;;;;;;;4.55;1.42;;;-0.80;99.90;;;;;;5008142;28;20037;-53
2022/01/21 08:24:58;;;;;;;3.88;1.15;;;-0.80;99.90;;;;;;5008169;28;20539;-56
2022/01/21 08:27:24;;;;;;;4.68;1.70;;;-0.80;99.90;;;;;;5007468;28;20020;-56
2022/01/21 08:29:50;;;;;;;4.30;1.15;;;-0.80;99.90;;;;;;5008203;28;20157;-57
2022/01/21 08:32:16;;;;;;;4.82;0.80;;;-0.70;99.90;;;;;;5006576;28;20121;-57
2022/01/21 08:34:42;;;;;;;1.70;0.77;;;-0.70;99.90;;;;;;5008293;28;20234;-54
2022/01/21 08:37:07;;;;;;;6.10;0.98;;;-0.70;99.90;;;;;;5005436;28;20148;-56
2022/01/21 08:39:34;;;;;;;1.95;0.63;;;-0.70;99.90;;;;;;5009258;28;20518;-53
2022/01/21 08:41:59;;;;;;;4.72;1.20;;;-0.60;99.90;;;;;;5010419;28;20018;-57
2022/01/21 08:44:25;;;;;;;3.53;1.10;;;-0.60;99.90;;;;;;5011608;28;20018;-53
2022/01/21 08:46:51;;;;;;;4.93;1.10;;;-0.60;99.90;;;;;;4993981;28;20440;-55
2022/01/21 08:49:20;;;;;;;4.40;1.23;;;-0.60;99.90;;;;;;5011557;28;20022;-54
2022/01/21 08:51:55;;;;;;;4.65;1.40;;;-0.50;99.90;;;;;;5011246;28;20088;-56
2022/01/21 08:54:21;;;;;;;3.08;1.13;;;-0.40;99.90;;;;;;5011424;28;20437;-53
2022/01/21 08:56:49;;;;;;;3.22;0.65;;;-0.40;99.90;;;;;;5010992;28;20048;-53
2022/01/21 08:59:16;;;;;;;1.85;0.90;;;-0.40;99.90;;;;;;5010841;28;20061;-57
2022/01/21 09:01:42;;;;;;;4.63;0.77;;;-0.30;99.90;;;;;;5011801;28;20116;-55
2022/01/21 09:04:08;;;;;;;1.80;0.75;;;-0.20;99.90;;;;;;5011055;28;20042;-56
2022/01/21 09:06:34;;;;;;;5.00;0.85;;;-0.20;99.90;;;;;;5011402;28;20034;-51
2022/01/21 09:09:00;;;;;;;5.45;0.93;;;-0.10;99.90;;;;;;5011280;28;20095;-58
2022/01/21 09:11:26;;;;;;;1.85;0.73;;;0.00;99.90;;;;;;5011295;28;20025;-56
2022/01/21 09:13:52;;;;;;;5.63;1.23;;;0.10;99.90;;;;;;5011034;28;20088;-52
2022/01/21 09:16:18;;;;;;;1.30;0.77;;;0.20;99.90;;;;;;5010919;28;20057;-57
2022/01/21 09:18:46;;;;;;;2.60;0.95;;;0.30;99.90;;;;;;4993513;28;20483;-56
2022/01/21 09:21:22;;;;;;;3.28;0.98;;;0.40;99.90;;;;;;5010322;28;20514;-53
2022/01/21 09:23:49;;;;;;;3.38;1.00;;;0.50;99.90;;;;;;5010388;28;20129;-56
2022/01/21 09:26:17;;;;;;;6.40;1.08;;;0.60;99.90;;;;;;5009854;28;20038;-51
2022/01/21 09:28:43;;;;;;;2.58;0.88;;;0.70;99.90;;;;;;5010610;28;20018;-55
2022/01/21 09:31:09;;;;;;;2.20;0.73;;;0.70;99.90;;;;;;5010619;28;20103;-54
2022/01/21 09:33:34;;;;;;;1.80;0.73;;;0.80;99.90;;;;;;5010284;28;20057;-53
2022/01/21 09:36:00;;;;;;;5.53;1.50;;;0.90;99.90;;;;;;5010739;28;20069;-55
2022/01/21 09:38:26;;;;;;;4.68;1.20;;;1.00;99.90;;;;;;5010736;28;20038;-54
2022/01/21 09:40:53;;;;;;;1.65;0.63;;;1.00;99.90;;;;;;5009921;28;20060;-56
2022/01/21 09:43:20;;;;;;;7.53;1.20;;;1.10;99.90;;;;;;5010552;28;20473;-54
2022/01/21 09:45:51;;;;;;;1.27;0.60;;;1.20;99.90;;;;;;5010217;28;20053;-53
2022/01/21 09:48:22;;;;;;;3.92;1.05;;;1.30;99.90;;;;;;5010140;28;20018;-53
2022/01/21 09:50:50;;;;;;;2.15;1.05;;;1.40;99.90;;;;;;5009441;28;20033;-52
2022/01/21 09:53:27;;;;;;;2.13;0.77;;;1.40;99.90;;;;;;5009920;28;20032;-53
2022/01/21 09:55:56;;;;;;;2.60;0.63;;;1.50;99.90;;;;;;5009996;28;20026;-50
2022/01/21 09:58:22;;;;;;;2.85;1.00;;;1.60;99.90;;;;;;5010546;28;20034;-54
2022/01/21 10:00:48;;;;;;;4.85;1.20;;;1.60;99.90;;;;;;5010203;28;20049;-56
2022/01/21 10:03:15;;;;;;;1.35;0.75;;;1.70;99.90;;;;;;5010163;28;20037;-53
2022/01/21 10:05:46;;;;;;;4.22;1.05;;;1.80;99.90;;;;;;5008648;28;20056;-56
2022/01/21 10:08:13;;;;;;;1.67;0.70;;;1.80;99.90;;;;;;5009855;28;20037;-51
2022/01/21 10:10:41;;;;;;;3.28;0.65;;;1.90;99.90;;;;;;5010167;28;20033;-57
2022/01/21 10:13:08;;;;;;;7.63;1.27;;;2.00;99.90;;;;;;5009295;28;20033;-56
2022/01/21 10:15:37;;;;;;;2.45;0.98;;;2.10;99.90;;;;;;5008759;28;20029;-55
2022/01/21 10:18:02;;;;;;;4.32;0.70;;;2.10;99.90;;;;;;5010395;28;20117;-56
2022/01/21 10:20:28;;;;;;;8.60;1.48;;;2.20;99.90;;;;;;5009296;28;20155;-52
2022/01/21 10:23:08;;;;;;;6.88;1.55;;;2.30;99.90;;;;;;5009614;28;20026;-54
2022/01/21 10:25:36;;;;;;;1.58;0.75;;;2.30;99.90;;;;;;5007161;28;20614;-55
2022/01/21 10:28:17;;;;;;;4.30;1.20;;;2.30;99.90;;;;;;5009348;28;20480;-55
2022/01/21 10:30:44;;;;;;;5.10;1.67;;;2.40;99.90;;;;;;5009388;28;20152;-53
2022/01/21 10:33:26;;;;;;;4.70;0.90;;;2.40;99.90;;;;;;5007905;28;20022;-53
2022/01/21 10:36:15;;;;;;;3.45;0.93;;;2.50;99.90;;;;;;5010021;28;20038;-54
2022/01/21 10:38:44;;;;;;;3.40;1.00;;;2.50;99.90;;;;;;5008747;28;20029;-52
2022/01/21 10:41:13;;;;;;;5.57;1.92;;;2.60;99.90;;;;;;4992054;28;20034;-52
2022/01/21 10:43:38;;;;;;;8.68;1.40;;;2.60;99.90;;;;;;5008784;28;20022;-56
2022/01/21 10:46:05;;;;;;;5.80;1.08;;;2.60;99.90;;;;;;5008298;28;20404;-54
2022/01/21 10:48:52;;;;;;;5.70;1.15;;;2.70;99.90;;;;;;5008670;28;20586;-55
2022/01/21 10:51:25;;;;;;;12.25;1.90;;;2.70;99.90;;;;;;5009383;28;20061;-52
2022/01/21 10:53:51;;;;;;;5.97;0.90;;;2.70;99.90;;;;;;5006989;28;20064;-55
2022/01/21 10:56:19;;;;;;;3.17;0.75;;;2.80;99.90;;;;;;5008539;28;20076;-54
2022/01/21 10:58:47;;;;;;;6.20;1.42;;;2.80;99.90;;;;;;5009452;28;20388;-54
2022/01/21 11:01:17;;;;;;;3.20;1.20;;;2.80;99.90;;;;;;5007379;28;20040;-56
2022/01/21 11:04:03;;;;;;;4.28;1.73;;;2.80;99.90;;;;;;5007277;28;20030;-56
2022/01/21 11:06:42;;;;;;;6.70;1.40;;;2.80;99.90;;;;;;5007611;28;20042;-52
2022/01/21 11:09:15;;;;;;;4.22;1.30;;;2.90;99.90;;;;;;5008918;28;20030;-53
2022/01/21 11:11:41;;;;;;;6.05;1.52;;;2.90;99.90;;;;;;5008511;28;20025;-54
2022/01/21 11:14:25;;;;;;;5.95;0.98;;;3.00;99.90;;;;;;5008991;28;20025;-52
2022/01/21 11:16:51;;;;;;;5.18;1.42;;;3.00;99.90;;;;;;5009135;28;20034;-52
2022/01/21 11:19:25;;;;;;;6.38;1.85;;;3.00;99.90;;;;;;5031191;23;20213;-49
2022/01/21 11:21:56;;;;;;;7.35;2.13;;;3.10;99.90;;;;;;5007499;28;20064;-52
2022/01/21 11:24:25;;;;;;;7.93;1.52;;;3.10;99.90;;;;;;5004222;28;20058;-51
2022/01/21 11:27:14;;;;;;;5.10;1.50;;;3.10;99.90;;;;;;5008952;28;20033;-51
2022/01/21 11:29:42;;;;;;;4.65;1.45;;;3.10;99.90;;;;;;5009125;28;20018;-48
2022/01/21 11:32:08;;;;;;;6.97;1.90;;;3.10;99.90;;;;;;5008756;28;20030;-52
2022/01/21 11:34:34;;;;;;;7.10;1.52;;;3.10;99.90;;;;;;5008782;28;20448;-49
2022/01/21 11:37:00;;;;;;;5.78;2.00;;;3.20;99.90;;;;;;5008618;28;20503;-49
2022/01/21 11:39:27;;;;;;;5.07;1.70;;;3.20;99.90;;;;;;5008331;28;20049;-51
2022/01/21 11:41:57;;;;;;;4.82;1.73;;;3.30;99.90;;;;;;5009163;28;20451;-54
2022/01/21 11:44:28;;;;;;;7.55;1.60;;;3.30;99.90;;;;;;5008672;28;20018;-51
2022/01/21 11:49:37;;;;;;;8.43;2.90;;;3.40;99.90;;;;;;5008849;28;20033;-52
2022/01/21 11:52:18;;;;;;;9.38;1.40;;;3.40;99.90;;;;;;5008596;28;20030;-51
2022/01/21 11:54:45;;;;;;;5.00;2.30;;;3.30;99.90;;;;;;5008703;28;20088;-54
2022/01/21 11:57:12;;;;;;;6.90;2.22;;;3.30;99.90;;;;;;5008489;28;20034;-53
2022/01/21 11:59:47;;;;;;;5.47;1.88;;;3.30;99.90;;;;;;4990407;28;20061;-51
2022/01/21 12:02:16;;;;;;;7.30;1.67;;;3.20;99.90;;;;;;5008141;28;20674;-50
2022/01/21 12:04:46;;;;;;;2.97;1.30;;;3.30;99.90;;;;;;5008641;28;20068;-53
2022/01/21 12:07:40;;;;;;;6.22;1.52;;;3.30;99.90;;;;;;5008548;28;20092;-52
2022/01/21 12:10:21;;;;;;;7.00;1.50;;;3.30;99.90;;;;;;5009293;28;20504;-50
2022/01/21 12:12:59;;;;;;;6.75;1.63;;;3.40;99.90;;;;;;5008282;28;20018;-50
2022/01/21 12:15:26;;;;;;;5.88;1.67;;;3.30;99.90;;;;;;5011737;28;20029;-54
2022/01/21 12:18:04;;;;;;;10.38;2.30;;;3.40;99.90;;;;;;5012585;28;20022;-51
2022/01/21 12:20:31;;;;;;;4.55;2.13;;;3.40;99.90;;;;;;5012377;28;20515;-51
2022/01/21 12:23:12;;;;;;;6.30;2.35;;;3.40;99.90;;;;;;5012374;28;20087;-52
2022/01/21 12:26:16;;;;;;;9.43;1.98;;;3.40;99.90;;;;;;5012266;28;20492;-50
2022/01/21 12:28:43;;;;;;;10.43;1.38;;;3.40;99.90;;;;;;5010462;28;20022;-51
2022/01/21 12:31:10;;;;;;;8.27;1.83;;;3.40;99.90;;;;;;5012171;28;20392;-54
2022/01/21 12:34:09;;;;;;;4.70;1.60;;;3.40;99.90;;;;;;5010778;28;20117;-51
2022/01/21 12:36:40;;;;;;;6.38;1.60;;;3.40;99.90;;;;;;4980578;28;20044;-51
2022/01/21 12:39:42;;;;;;;6.90;1.65;;;3.40;99.90;;;;;;5011723;28;20487;-54
2022/01/21 12:42:20;;;;;;;12.63;2.22;;;3.40;99.90;;;;;;5012886;28;20056;-54
2022/01/21 12:45:06;;;;;;;5.43;1.80;;;3.40;99.90;;;;;;4993808;28;20026;-54
2022/01/21 12:47:39;;;;;;;10.90;1.98;;;3.40;99.90;;;;;;4991331;28;20516;-55
2022/01/21 12:50:31;;;;;;;15.18;1.48;;;3.50;99.90;;;;;;4993525;28;20034;-53
2022/01/21 12:55:58;;;;;;;7.07;1.88;;;3.50;99.90;;;;;;5010316;28;20463;-51
2022/01/21 12:58:28;;;;;;;11.85;2.42;;;3.50;99.90;;;;;;4993366;28;20111;-53
2022/01/21 13:01:04;;;;;;;5.60;1.70;;;3.50;99.90;;;;;;5010565;28;20045;-54
2022/01/21 13:03:49;;;;;;;7.97;2.28;;;3.50;99.90;;;;;;5010357;28;20030;-51
2022/01/21 13:06:52;;;;;;;8.57;2.13;;;3.60;99.90;;;;;;5010294;28;20402;-53
2022/01/21 13:09:24;;;;;;;9.57;2.25;;;3.60;99.90;;;;;;5010476;28;20033;-54
2022/01/21 13:12:06;;;;;;;9.55;2.05;;;3.60;99.90;;;;;;5011155;28;20505;-56
2022/01/21 13:17:09;;;;;;;3.03;1.67;;;3.70;99.90;;;;;;5011765;28;20030;-52
2022/01/21 13:19:55;;;;;;;14.20;1.90;;;3.70;99.90;;;;;;5009877;28;20033;-55
2022/01/21 13:22:25;;;;;;;10.75;2.08;;;3.70;99.90;;;;;;4993027;28;20034;-56
2022/01/21 13:25:13;;;;;;;6.60;2.10;;;3.70;99.90;;;;;;5009666;28;20033;-54
2022/01/21 13:27:51;;;;;;;9.55;2.10;;;3.70;99.90;;;;;;5009500;28;20025;-51
2022/01/21 13:30:20;;;;;;;7.15;1.52;;;3.70;99.90;;;;;;5010074;28;20084;-51
2022/01/21 13:32:46;;;;;;;14.55;1.98;;;3.60;99.90;;;;;;5007802;28;20064;-55
2022/01/21 13:35:15;;;;;;;12.25;1.67;;;3.60;99.90;;;;;;5009964;28;20030;-55
2022/01/21 13:37:58;;;;;;;9.75;2.15;;;3.60;99.90;;;;;;5009750;28;20033;-52
2022/01/21 13:40:24;;;;;;;9.48;2.00;;;3.60;99.90;;;;;;5009976;28;20033;-55
2022/01/21 13:42:50;;;;;;;7.40;2.10;;;3.70;99.90;;;;;;5008992;28;20030;-52
2022/01/21 13:45:15;;;;;;;4.80;1.48;;;3.70;99.90;;;;;;5010310;28;20018;-52